Milwaukee, Wisconsin
Traffic Map
Current Weather Conditions
Milwaukee, Wisconsin
Scattered Clouds
Scattered Clouds
47°
Feels Like: 44°
Wind Chill: 44° Ceiling: Unl
Heat Index: 47° Visibility: 10mi
Dew Point: 32° Wind: 6mph
Humidity: 56% Direction: 270° (W)
Pressure: 29.95in Gusts: 0mph
Raw Report DataKMKE 030952Z 27005KT 10SM SCT085 08/00 A2995 RMK AO2 SLP145 T00830000
Traffic Incident Summary
Active as of:
Severity:
Category:
InformationThere was an issue retrieving the traffic information for this location. Please try a different location or try again shortly.
Advertisements
Track Severe Weather on mobile